Terminal Aerodrome Forecast
Issued by NWS Jackson, MS

Home | Current Version | Previous Version | Text Only | Print | Product List | Glossary On
Versions: 1 2 3 4 5 6 7 8 9 10 11 12 13
000
FTUS44 KMEG 271730
TAFTUP
TAF
KTUP 271730Z 2718/2818 19008KT P6SM VCTS BKN035CB
      TEMPO 2720/2724 P6SM OVC035CB
     FM280200 20009KT P6SM VCTS OVC030CB
     FM281200 21006KT 4SM -RA BR OVC010
     FM281600 25010KT 4SM -RA BR OVC025=

USA.gov is the U.S. government's official web portal to all federal, state and local government web resources and services.